createdAt,value
2024-03-05T00:00:30.524Z,5.50
2024-03-05T00:03:00.408Z,5.50
2024-03-05T00:05:30.970Z,5.20
2024-03-05T00:08:00.967Z,6.10
2024-03-05T00:10:33.314Z,5.70
2024-03-05T00:13:04.444Z,5.50
2024-03-05T00:15:35.250Z,5.40
2024-03-05T00:18:05.754Z,6.20
2024-03-05T00:20:36.616Z,6.30
2024-03-05T00:23:06.401Z,6.70
2024-03-05T00:25:36.229Z,5.80
2024-03-05T00:28:06.448Z,6.00
2024-03-05T00:30:36.226Z,7.10
2024-03-05T00:33:07.722Z,6.20
2024-03-05T00:35:37.751Z,6.50
2024-03-05T00:38:09.821Z,6.70
2024-03-05T00:40:45.862Z,6.40
2024-03-05T00:43:16.182Z,6.20
2024-03-05T00:45:47.564Z,6.60
2024-03-05T00:48:17.392Z,6.80
2024-03-05T00:50:47.850Z,5.80
2024-03-05T00:53:17.723Z,6.10
2024-03-05T00:55:47.746Z,6.20
2024-03-05T00:58:17.830Z,6.30
2024-03-05T01:00:48.368Z,5.80
2024-03-05T01:03:18.538Z,6.00
2024-03-05T01:05:48.342Z,5.80
2024-03-05T01:08:18.519Z,6.30
2024-03-05T01:10:48.477Z,5.90
2024-03-05T01:13:20.766Z,7.10
2024-03-05T01:15:51.388Z,6.50
2024-03-05T01:18:21.821Z,7.50
2024-03-05T01:20:51.748Z,6.50
2024-03-05T01:23:21.733Z,6.60
2024-03-05T01:25:51.829Z,6.40
2024-03-05T01:28:21.930Z,7.20
2024-03-05T01:30:51.679Z,6.50
2024-03-05T01:33:21.957Z,6.50
2024-03-05T01:35:53.123Z,6.40
2024-03-05T01:38:23.434Z,5.70
2024-03-05T01:40:54.144Z,6.90
2024-03-05T01:43:23.887Z,6.70
2024-03-05T01:45:54.438Z,6.40
2024-03-05T01:48:24.365Z,6.70
2024-03-05T01:50:54.088Z,6.50
2024-03-05T01:53:23.849Z,6.80
2024-03-05T01:55:54.497Z,6.40
2024-03-05T01:58:24.492Z,6.50
2024-03-05T02:00:54.413Z,7.00
2024-03-05T02:03:24.306Z,7.70
2024-03-05T02:05:54.935Z,7.20
2024-03-05T02:08:25.689Z,7.40
2024-03-05T02:10:55.670Z,7.20
2024-03-05T02:13:26.519Z,6.90
2024-03-05T02:15:56.387Z,7.00
2024-03-05T02:18:27.338Z,6.30
2024-03-05T13:36:47.829Z,7.40
2024-03-05T13:39:23.218Z,7.30
2024-03-05T13:41:54.839Z,6.90
2024-03-05T13:44:25.341Z,6.40
2024-03-05T13:46:55.259Z,7.60
2024-03-05T13:49:25.681Z,6.90
2024-03-05T13:51:55.978Z,7.30
2024-03-05T13:54:26.026Z,7.60
2024-03-05T13:56:55.900Z,7.20
2024-03-05T13:59:25.962Z,6.80
2024-03-05T14:01:56.775Z,6.80
2024-03-05T14:04:26.764Z,7.60
2024-03-05T14:06:56.773Z,7.20
2024-03-05T14:09:27.580Z,7.40
2024-03-05T14:11:58.403Z,7.60
2024-03-05T14:14:28.525Z,7.50
2024-03-05T14:16:58.384Z,7.00
2024-03-05T14:19:29.692Z,6.70
2024-03-05T14:22:01.617Z,7.00
2024-03-05T14:24:31.685Z,7.10
2024-03-05T14:27:01.875Z,6.80
2024-03-05T14:29:31.769Z,7.20
2024-03-05T14:32:01.648Z,7.00
2024-03-05T14:34:31.574Z,7.10
2024-03-05T14:37:01.870Z,6.70
2024-03-05T14:39:32.031Z,7.40
2024-03-05T14:42:02.179Z,7.00
2024-03-05T14:44:32.122Z,6.90
2024-03-05T14:47:02.461Z,7.30
2024-03-05T14:49:32.943Z,7.80
2024-03-05T14:52:02.812Z,6.80
2024-03-05T14:54:32.836Z,7.20
2024-03-05T14:57:02.770Z,7.00
2024-03-05T14:59:33.002Z,7.20
2024-03-05T15:02:03.128Z,7.70
2024-03-05T15:04:33.536Z,7.80
2024-03-05T15:07:04.227Z,7.60
2024-03-05T15:09:36.779Z,8.10
2024-03-05T15:12:10.941Z,8.20
2024-03-05T15:14:43.498Z,8.30
2024-03-05T15:17:14.121Z,8.10
2024-03-05T15:19:43.982Z,8.10
2024-03-05T15:22:13.950Z,8.40
2024-03-05T15:24:44.143Z,8.80
2024-03-05T15:27:14.401Z,8.70
2024-03-05T15:29:44.299Z,8.30
2024-03-05T15:32:14.465Z,7.60
2024-03-05T15:34:44.558Z,8.50
2024-03-05T15:37:15.321Z,7.70
2024-03-05T15:39:45.486Z,7.60
2024-03-05T15:42:15.456Z,7.70
2024-03-05T15:44:45.509Z,7.70
2024-03-05T15:47:15.466Z,8.00
2024-03-05T15:49:45.471Z,8.80
2024-03-05T15:52:15.533Z,8.10
2024-03-05T15:54:45.548Z,7.60
2024-03-05T15:57:20.952Z,7.70
2024-03-05T16:00:16.733Z,7.80
2024-03-05T16:02:47.299Z,8.00
2024-03-05T16:05:26.066Z,7.90
2024-03-05T16:08:02.411Z,7.20
2024-03-05T16:10:38.739Z,7.80
2024-03-05T16:13:15.390Z,7.60
2024-03-05T16:15:47.603Z,8.30
2024-03-05T16:18:17.699Z,7.80
2024-03-05T16:20:49.112Z,8.30
2024-03-05T16:23:19.098Z,8.10
2024-03-05T16:25:49.170Z,7.70
2024-03-05T16:28:19.289Z,8.00
2024-03-05T16:30:49.411Z,7.60
2024-03-05T16:33:19.473Z,7.60
2024-03-05T16:35:50.391Z,7.80
2024-03-05T16:38:20.269Z,8.10
2024-03-05T16:40:50.260Z,7.10
2024-03-05T16:43:20.487Z,7.50
2024-03-05T16:45:50.381Z,7.60
2024-03-05T16:48:20.550Z,6.80
2024-03-05T16:50:50.565Z,7.20
2024-03-05T16:53:20.981Z,7.70
2024-03-05T16:55:50.847Z,6.80
2024-03-05T16:58:20.715Z,6.70
2024-03-05T17:00:56.228Z,7.90
2024-03-05T17:03:30.579Z,6.60
2024-03-05T17:06:02.867Z,7.30
2024-03-05T17:08:33.206Z,6.70
2024-03-05T17:11:10.376Z,6.30
2024-03-05T17:13:42.778Z,7.40
2024-03-05T17:16:12.917Z,7.00
2024-03-05T17:18:42.784Z,7.00
2024-03-05T17:21:13.342Z,7.30
2024-03-05T17:23:47.681Z,7.80
2024-03-05T17:26:18.045Z,7.60
2024-03-05T17:28:48.051Z,6.70
2024-03-05T17:31:17.949Z,7.60
2024-03-05T20:07:23.887Z,10.40
2024-03-05T20:09:55.973Z,10.80
2024-03-05T20:12:27.621Z,10.10
2024-03-05T20:15:10.094Z,11.00
2024-03-05T20:17:44.512Z,11.00
2024-03-05T20:20:18.960Z,10.10
